Algona, IA

6:59 PM CDT on August 27, 2016 (GMT -0500)
Algona Municipal

Weather History for KAXA - November, 2012

Change the Weather History Date:

Thursday, November 15, 2012

  Actual Average Record
Temperature  
Mean Temperature 40 °F -  
Max Temperature 53 °F 43 °F 68 °F (2001)
Min Temperature 26 °F 26 °F 14 °F (2000)
Degree Days  
Heating Degree Days 26    
Moisture  
Dew Point 31 °F    
Average Humidity 71    
Maximum Humidity 87    
Minimum Humidity 44    
Precipitation  
Precipitation 0.00 in - - ()
Sea Level Pressure  
Sea Level Pressure 30.27 in    
Wind  
Wind Speed 11 mph (NW)    
Max Wind Speed 16 mph    
Max Gust Speed 21 mph    
Visibility 10 miles    
Events      
Averages and records for this station are not official NWS values.
T = Trace of Precipitation, MM = Missing Value Source: NWS Daily Summary

Daily Weather History Graph

Daily Weather History Graph

Search for Another Location

Airport or City:

Trip Planner

Search our weather history database for the weather conditions in past years. The results will help you decide how hot, cold, wet, or windy it might be!

Date:

Astronomy

Nov. 15, 2012 Rise Set
Actual Time 7:10 AM CST 4:52 PM CST
Civil Twilight 6:39 AM CST 5:23 PM CST
Nautical Twilight 6:05 AM CST 5:57 PM CST
Astronomical Twilight 5:31 AM CST 6:31 PM CST
Moon 9:08 AM CST (11/15) 6:43 PM CST (11/15)
Length of Visible Light 10h 43m
Length of Day
9h 42m
Waxing Crescent, 5% of the Moon is Illuminated
Nov 15
Waxing Crescent
Nov 20
First Quarter
Nov 28
Full
Dec 6
Last Quarter
Dec 13
New

Hourly Weather History & Observations

Time (CST) Temp. Windchill Dew Point Humidity Pressure Visibility Wind Dir Wind Speed Gust Speed Precip Events Conditions
12:15 AM 37.4 °F 29.8 °F 30.2 °F 75% 30.17 in 10.0 mi South 11.5 mph - N/A   Overcast
12:35 AM 37.4 °F 29.8 °F 30.2 °F 75% 30.17 in 10.0 mi South 11.5 mph - N/A   Scattered Clouds
12:55 AM 37.4 °F 29.8 °F 30.2 °F 75% 30.16 in 10.0 mi South 11.5 mph - N/A   Scattered Clouds
1:15 AM 37.4 °F 29.3 °F 30.2 °F 75% 30.16 in 10.0 mi South 12.7 mph - N/A   Overcast
1:35 AM 37.4 °F 29.3 °F 30.2 °F 75% 30.16 in 10.0 mi South 12.7 mph - N/A   Overcast
1:55 AM 37.4 °F 29.3 °F 30.2 °F 75% 30.16 in 10.0 mi South 12.7 mph - N/A   Overcast
2:15 AM 37.4 °F 28.9 °F 30.2 °F 75% 30.16 in 10.0 mi South 13.8 mph - N/A   Partly Cloudy
2:35 AM 37.4 °F 28.9 °F 30.2 °F 75% 30.16 in 10.0 mi South 13.8 mph - N/A   Partly Cloudy
2:55 AM 37.4 °F 29.3 °F 30.2 °F 75% 30.16 in 10.0 mi South 12.7 mph - N/A   Clear
3:15 AM 37.4 °F 29.3 °F 30.2 °F 75% 30.15 in 10.0 mi South 12.7 mph - N/A   Clear
3:35 AM 37.4 °F 28.9 °F 30.2 °F 75% 30.15 in 10.0 mi South 13.8 mph - N/A   Clear
3:55 AM 37.4 °F 29.3 °F 30.2 °F 75% 30.15 in 10.0 mi South 12.7 mph - N/A   Clear
4:15 AM 37.4 °F 29.3 °F 30.2 °F 75% 30.14 in 10.0 mi South 12.7 mph - N/A   Clear
4:35 AM 37.4 °F 29.8 °F 30.2 °F 75% 30.15 in 10.0 mi South 11.5 mph - N/A   Clear
4:55 AM 37.4 °F 29.8 °F 30.2 °F 75% 30.15 in 10.0 mi South 11.5 mph - N/A   Clear
5:15 AM 37.4 °F 30.3 °F 30.2 °F 75% 30.16 in 10.0 mi SSW 10.4 mph - N/A   Clear
5:35 AM 35.6 °F 27.5 °F 30.2 °F 81% 30.16 in 10.0 mi SSW 11.5 mph - N/A   Clear
5:55 AM 35.6 °F 28.6 °F 30.2 °F 81% 30.17 in 10.0 mi SSW 9.2 mph - N/A   Partly Cloudy
6:15 AM 35.6 °F 28.6 °F 30.2 °F 81% 30.17 in 10.0 mi SSW 9.2 mph - N/A   Mostly Cloudy
6:35 AM 33.8 °F 25.8 °F 30.2 °F 87% 30.17 in 10.0 mi SSW 10.4 mph - N/A   Scattered Clouds
6:55 AM 33.8 °F 24.8 °F 30.2 °F 87% 30.18 in 10.0 mi SSW 12.7 mph - N/A   Scattered Clouds
7:15 AM 35.6 °F 27.5 °F 30.2 °F 81% 30.18 in 10.0 mi SSW 11.5 mph - N/A   Partly Cloudy
7:35 AM 35.6 °F 28.0 °F 30.2 °F 81% 30.19 in 10.0 mi SW 10.4 mph - N/A   Clear
7:55 AM 35.6 °F 28.0 °F 30.2 °F 81% 30.20 in 10.0 mi SW 10.4 mph - N/A   Clear
8:15 AM 35.6 °F 29.2 °F 30.2 °F 81% 30.21 in 10.0 mi WSW 8.1 mph - N/A   Clear
8:35 AM 37.4 °F 32.8 °F 32.0 °F 81% 30.22 in 10.0 mi WSW 5.8 mph - N/A   Clear
8:55 AM 39.2 °F 32.0 °F 32.0 °F 75% 30.22 in 10.0 mi West 11.5 mph - N/A   Clear
9:15 AM 41.0 °F 35.2 °F 33.8 °F 76% 30.23 in 10.0 mi NW 9.2 mph - N/A   Clear
9:35 AM 42.8 °F 37.0 °F 33.8 °F 70% 30.24 in 10.0 mi NW 10.4 mph - N/A   Clear
9:55 AM 44.6 °F 39.2 °F 33.8 °F 66% 30.25 in 10.0 mi NW 10.4 mph - N/A   Clear
10:15 AM 44.6 °F 39.2 °F 33.8 °F 66% 30.25 in 10.0 mi NNW 10.4 mph 17.3 mph N/A   Clear
10:35 AM 46.4 °F 40.7 °F 33.8 °F 62% 30.26 in 10.0 mi NNW 12.7 mph - N/A   Clear
10:55 AM 48.2 °F - 33.8 °F 58% 30.26 in 10.0 mi NNW 11.5 mph - N/A   Clear
11:15 AM 48.2 °F - 33.8 °F 58% 30.26 in 10.0 mi NNW 12.7 mph - N/A   Clear
11:35 AM 50.0 °F - 33.8 °F 54% 30.26 in 10.0 mi NNW 10.4 mph - N/A   Clear
11:55 AM 50.0 °F - 33.8 °F 54% 30.26 in 10.0 mi NNW 10.4 mph 16.1 mph N/A   Clear
12:15 PM 50.0 °F - 35.6 °F 58% 30.26 in 6.0 mi NW 13.8 mph - N/A   Haze
12:55 PM 51.8 °F - 35.6 °F 54% 30.26 in 10.0 mi NW 13.8 mph 19.6 mph N/A   Clear
1:15 PM 51.8 °F - 35.6 °F 54% 30.26 in 10.0 mi NNW 12.7 mph 18.4 mph N/A   Clear
1:35 PM 51.8 °F - 33.8 °F 50% 30.26 in 10.0 mi NNW 13.8 mph - N/A   Clear
1:55 PM 53.6 °F - 33.8 °F 47% 30.26 in 10.0 mi NNW 13.8 mph - N/A   Clear
2:15 PM 53.6 °F - 32.0 °F 44% 30.27 in 10.0 mi NNW 15.0 mph - N/A   Clear
2:35 PM 51.8 °F - 32.0 °F 47% 30.27 in 10.0 mi NNW 12.7 mph 20.7 mph N/A   Clear
2:55 PM 51.8 °F - 32.0 °F 47% 30.28 in 10.0 mi NNW 16.1 mph - N/A   Clear
3:15 PM 51.8 °F - 32.0 °F 47% 30.28 in 10.0 mi NNW 13.8 mph - N/A   Clear
3:35 PM 51.8 °F - 32.0 °F 47% 30.29 in 10.0 mi NNW 13.8 mph - N/A   Clear
3:55 PM 50.0 °F - 33.8 °F 54% 30.30 in 10.0 mi NNW 11.5 mph - N/A   Clear
4:15 PM 48.2 °F - 33.8 °F 58% 30.31 in 10.0 mi North 11.5 mph - N/A   Clear
4:35 PM 46.4 °F 41.5 °F 33.8 °F 62% 30.32 in 10.0 mi North 10.4 mph 16.1 mph N/A   Clear
4:55 PM 44.6 °F 39.7 °F 32.0 °F 61% 30.33 in 10.0 mi North 9.2 mph - N/A   Clear
5:15 PM 42.8 °F 38.6 °F 32.0 °F 66% 30.34 in 10.0 mi North 6.9 mph - N/A   Clear
5:35 PM 41.0 °F 35.2 °F 32.0 °F 70% 30.35 in 10.0 mi North 9.2 mph - N/A   Clear
5:55 PM 39.2 °F 32.5 °F 32.0 °F 75% 30.35 in 10.0 mi NNW 10.4 mph - N/A   Clear
6:15 PM 39.2 °F 33.0 °F 32.0 °F 75% 30.36 in 10.0 mi NNW 9.2 mph - N/A   Clear
6:35 PM 37.4 °F 31.4 °F 32.0 °F 81% 30.37 in 10.0 mi North 8.1 mph - N/A   Clear
6:55 PM 37.4 °F 30.3 °F 32.0 °F 81% 30.38 in 10.0 mi North 10.4 mph - N/A   Clear
7:15 PM 37.4 °F 29.8 °F 30.2 °F 75% 30.38 in 10.0 mi North 11.5 mph - N/A   Clear
7:35 PM 35.6 °F 28.0 °F 28.4 °F 75% 30.39 in 10.0 mi North 10.4 mph - N/A   Clear
7:55 PM 33.8 °F 27.0 °F 28.4 °F 81% 30.39 in 10.0 mi NNW 8.1 mph - N/A   Clear
8:15 PM 33.8 °F 26.4 °F 28.4 °F 81% 30.40 in 10.0 mi North 9.2 mph - N/A   Clear
8:35 PM 32.0 °F 24.8 °F 26.6 °F 80% 30.40 in 10.0 mi NNW 8.1 mph - N/A   Clear
9:15 PM 32.0 °F 23.6 °F 26.6 °F 80% 30.41 in 10.0 mi NNW 10.4 mph - N/A   Clear
9:35 PM 30.2 °F 22.6 °F 26.6 °F 86% 30.41 in 10.0 mi NNW 8.1 mph - N/A   Clear
9:55 PM 30.2 °F 22.6 °F 24.8 °F 80% 30.41 in 10.0 mi North 8.1 mph - N/A   Clear
10:15 PM 30.2 °F 21.9 °F 24.8 °F 80% 30.42 in 10.0 mi North 9.2 mph - N/A   Clear
10:35 PM 28.4 °F 20.4 °F 24.8 °F 86% 30.42 in 10.0 mi NNW 8.1 mph - N/A   Clear
10:55 PM 28.4 °F 20.4 °F 23.0 °F 80% 30.42 in 10.0 mi NNW 8.1 mph - N/A   Clear
11:15 PM 28.4 °F 20.4 °F 23.0 °F 80% 30.42 in 10.0 mi North 8.1 mph - N/A   Clear
11:35 PM 26.6 °F 19.1 °F 23.0 °F 86% 30.43 in 10.0 mi North 6.9 mph - N/A   Clear
11:55 PM 26.6 °F 19.1 °F 23.0 °F 86% 30.43 in 10.0 mi North 6.9 mph - N/A   Clear